Aviation Digital Data Service (ADDS)

Output produced by METARs form (1447 UTC 24 July 2016)
found at http://aviationweather.gov/adds/metars/
 
KBWI 241129Z 2412/2518 04004KT P6SM FEW250 
     FM241600 10005KT P6SM SCT050 
     FM242000 16005KT P6SM SCT050 
     FM250000 15004KT P6SM FEW250 
     FM251100 23004KT P6SM SCT150 
     FM251500 24005KT P6SM SCT050